fusioninventory-agent [kinetic/s390x]

Version Triggers Date Duration Requester Result
1:2.6-2 libjson-pp-perl/4.10000-1 2022-06-25 19:14:33 UTC 0h 15m 28s - pass logartifacts
1:2.6-2 libwww-perl/6.67-1 2022-06-18 09:09:25 UTC 0h 12m 26s - pass logartifacts
1:2.6-2 libproc-daemon-perl/0.23-2 2022-06-17 22:33:27 UTC 0h 12m 40s - pass logartifacts
1:2.6-2 libsocket-getaddrinfo-perl/0.22-4 2022-06-17 19:22:09 UTC 0h 13m 12s - pass logartifacts
1:2.6-2 libnet-cups-perl/0.64-2 2022-06-17 03:49:18 UTC 0h 09m 08s - pass logartifacts
1:2.6-2 libnet-nbname-perl/0.26-3 2022-06-17 01:24:25 UTC 0h 11m 11s - pass logartifacts
1:2.6-2 libxml-treepp-perl/0.43-1.1 2022-06-15 12:04:50 UTC 0h 14m 20s - pass logartifacts
1:2.6-2 libsocket-getaddrinfo-perl/0.22-3.1 2022-06-15 11:51:11 UTC 0h 14m 23s - pass logartifacts
1:2.6-2 libproc-daemon-perl/0.23-1.1 2022-06-15 07:37:44 UTC 0h 13m 34s - pass logartifacts
1:2.6-2 usb.ids/2022.05.20-1 2022-06-11 07:47:00 UTC 0h 10m 18s - pass logartifacts
1:2.6-2 libjson-pp-perl/4.09000-1 2022-05-26 02:58:27 UTC 0h 13m 02s - pass logartifacts
1:2.6-2 libwww-perl/6.66-1 2022-05-22 08:03:00 UTC 0h 11m 21s - pass logartifacts
1:2.6-2 usb.ids/2022.05.09-1 2022-05-17 09:43:11 UTC 0h 15m 00s - pass logartifacts
1:2.6-2 libxml-xpath-perl/1.47-1 2022-05-16 01:16:39 UTC 0h 20m 45s - pass logartifacts
1:2.6-2 libwww-perl/6.65-1 2022-05-15 08:16:57 UTC 0h 16m 59s - pass logartifacts
1:2.6-2 libtext-template-perl/1.61-1 2022-05-09 02:13:17 UTC 0h 18m 14s - pass logartifacts
1:2.6-2 libfile-which-perl/1.27-1 2022-05-08 23:14:16 UTC 0h 13m 52s - pass logartifacts
1:2.6-2 libwww-perl/6.64-1 2022-05-05 23:43:21 UTC 0h 22m 46s - pass logartifacts
1:2.6-2 libjson-pp-perl/4.08000-1 2022-04-30 18:02:42 UTC 0h 20m 15s - pass logartifacts
1:2.6-2 libhttp-daemon-perl/6.14-1 2022-04-30 03:49:50 UTC 0h 19m 12s - pass logartifacts
1:2.6-2 pci.ids/0.0~2022.04.15-1 2022-04-29 20:51:51 UTC 0h 12m 10s - pass logartifacts
1:2.6-2 usb.ids/2022.04.02-1 2022-04-04 11:55:45 UTC 0h 10m 39s - pass logartifacts